N777MQ YSCB-YSSY
Flight info
| Callsign | N777MQ |
|---|---|
| Flight time | 0h 31m |
| Altitude | 15000 |
| Route | CB W423 CULIN Y59 RIVET |
| Aircraft | B77W/H-SDE1E2E3FGHIJ2J3J4J5M1RWXY/LB1D1 |
Departure
| Time | 2026-04-21 04:47 |
|---|---|
| Airport | Canberra Airport (YSCB) |
Arrival
| Time | 2026-04-21 05:19 |
|---|---|
| Airport | Sydney Kingsford Smith International Airport (YSSY) |
| Time | Latitude | Longitude | Altitude | Speed | Heading |
|---|---|---|---|---|---|
| 2026-04-21 04:34 | -35.30672 | 149.19110 | 1876 ft | 0 kts | 228° |
| 2026-04-21 04:38 | -35.30670 | 149.19113 | 1876 ft | 2 kts | 227° |
| 2026-04-21 04:38 | -35.30658 | 149.19128 | 1877 ft | 3 kts | 210° |
| 2026-04-21 04:38 | -35.30640 | 149.19137 | 1879 ft | 3 kts | 183° |
| 2026-04-21 04:39 | -35.30621 | 149.19134 | 1878 ft | 3 kts | 150° |
| 2026-04-21 04:39 | -35.30611 | 149.19125 | 1881 ft | 1 kts | 130° |
| 2026-04-21 04:41 | -35.30623 | 149.19142 | 1878 ft | 5 kts | 130° |
| 2026-04-21 04:41 | -35.30643 | 149.19199 | 1882 ft | 9 kts | 82° |
| 2026-04-21 04:41 | -35.30578 | 149.19238 | 1880 ft | 15 kts | 3° |
| 2026-04-21 04:41 | -35.30436 | 149.19239 | 1882 ft | 24 kts | 360° |
| 2026-04-21 04:42 | -35.30261 | 149.19240 | 1881 ft | 26 kts | 0° |
| 2026-04-21 04:42 | -35.30079 | 149.19240 | 1881 ft | 26 kts | 360° |
| 2026-04-21 04:42 | -35.29907 | 149.19239 | 1881 ft | 24 kts | 360° |
| 2026-04-21 04:42 | -35.29739 | 149.19238 | 1877 ft | 24 kts | 360° |
| 2026-04-21 04:43 | -35.29571 | 149.19236 | 1883 ft | 24 kts | 359° |
| 2026-04-21 04:43 | -35.29402 | 149.19233 | 1881 ft | 24 kts | 359° |
| 2026-04-21 04:43 | -35.29233 | 149.19232 | 1887 ft | 24 kts | 0° |
| 2026-04-21 04:43 | -35.29098 | 149.19247 | 1883 ft | 16 kts | 29° |
| 2026-04-21 04:44 | -35.29081 | 149.19271 | 1883 ft | 0 kts | 65° |
| 2026-04-21 04:45 | -35.29078 | 149.19279 | 1884 ft | 2 kts | 65° |
| 2026-04-21 04:46 | -35.29072 | 149.19321 | 1886 ft | 10 kts | 86° |
| 2026-04-21 04:46 | -35.29090 | 149.19420 | 1885 ft | 13 kts | 132° |
| 2026-04-21 04:46 | -35.29185 | 149.19444 | 1888 ft | 21 kts | 179° |
| 2026-04-21 04:46 | -35.29611 | 149.19444 | 1882 ft | 104 kts | 180° |
| 2026-04-21 04:47 | -35.30598 | 149.19446 | 1887 ft | 174 kts | 180° |
| 2026-04-21 04:47 | -35.31855 | 149.19424 | 2499 ft | 186 kts | 178° |
| 2026-04-21 04:47 | -35.33088 | 149.19389 | 3663 ft | 169 kts | 182° |
| 2026-04-21 04:47 | -35.34247 | 149.19160 | 4490 ft | 172 kts | 187° |
| 2026-04-21 04:48 | -35.35510 | 149.18848 | 4830 ft | 201 kts | 189° |
| 2026-04-21 04:48 | -35.36975 | 149.18621 | 5079 ft | 226 kts | 172° |
| 2026-04-21 04:48 | -35.38466 | 149.19344 | 5455 ft | 246 kts | 141° |
| 2026-04-21 04:48 | -35.39493 | 149.21052 | 6248 ft | 258 kts | 112° |
| 2026-04-21 04:49 | -35.39749 | 149.23283 | 7030 ft | 275 kts | 85° |
| 2026-04-21 04:49 | -35.39158 | 149.25542 | 7916 ft | 283 kts | 65° |
| 2026-04-21 04:49 | -35.38213 | 149.27670 | 8852 ft | 289 kts | 63° |
| 2026-04-21 04:49 | -35.37216 | 149.29822 | 9795 ft | 293 kts | 63° |
| 2026-04-21 04:50 | -35.36195 | 149.32019 | 10552 ft | 304 kts | 63° |
| 2026-04-21 04:50 | -35.35105 | 149.34374 | 10848 ft | 333 kts | 63° |
| 2026-04-21 04:50 | -35.33919 | 149.36954 | 11081 ft | 363 kts | 63° |
| 2026-04-21 04:50 | -35.32648 | 149.39732 | 11575 ft | 383 kts | 63° |
| 2026-04-21 04:51 | -35.31330 | 149.42618 | 12501 ft | 391 kts | 63° |
| 2026-04-21 04:51 | -35.29994 | 149.45547 | 13593 ft | 398 kts | 63° |
| 2026-04-21 04:51 | -35.28635 | 149.48517 | 14640 ft | 402 kts | 62° |
| 2026-04-21 04:51 | -35.27063 | 149.51335 | 15282 ft | 407 kts | 52° |
| 2026-04-21 04:52 | -35.25068 | 149.53841 | 15350 ft | 417 kts | 41° |
| 2026-04-21 04:52 | -35.22751 | 149.55980 | 15355 ft | 417 kts | 37° |
| 2026-04-21 04:52 | -35.20422 | 149.58074 | 15346 ft | 415 kts | 38° |
| 2026-04-21 04:52 | -35.18105 | 149.60185 | 15359 ft | 415 kts | 38° |
| 2026-04-21 04:53 | -35.15801 | 149.62302 | 15355 ft | 415 kts | 38° |
| 2026-04-21 04:53 | -35.13498 | 149.64434 | 15348 ft | 415 kts | 38° |
| 2026-04-21 04:53 | -35.11204 | 149.66564 | 15348 ft | 415 kts | 38° |
| 2026-04-21 04:53 | -35.08938 | 149.68672 | 15349 ft | 415 kts | 38° |
| 2026-04-21 04:54 | -35.06646 | 149.70805 | 15349 ft | 415 kts | 38° |
| 2026-04-21 04:54 | -35.04349 | 149.72943 | 15349 ft | 415 kts | 38° |
| 2026-04-21 04:54 | -35.02052 | 149.75078 | 15348 ft | 415 kts | 38° |
| 2026-04-21 04:54 | -34.99755 | 149.77212 | 15350 ft | 415 kts | 38° |
| 2026-04-21 04:55 | -34.97450 | 149.79351 | 15348 ft | 415 kts | 38° |
| 2026-04-21 04:55 | -34.95153 | 149.81481 | 15350 ft | 415 kts | 38° |
| 2026-04-21 04:55 | -34.92850 | 149.83616 | 15348 ft | 415 kts | 38° |
| 2026-04-21 04:55 | -34.90550 | 149.85745 | 15349 ft | 415 kts | 38° |
| 2026-04-21 04:56 | -34.88247 | 149.87876 | 15345 ft | 416 kts | 38° |
| 2026-04-21 04:56 | -34.85975 | 149.89977 | 15348 ft | 416 kts | 38° |
| 2026-04-21 04:56 | -34.83669 | 149.92107 | 15354 ft | 416 kts | 38° |
| 2026-04-21 04:56 | -34.81364 | 149.94236 | 15348 ft | 417 kts | 38° |
| 2026-04-21 04:57 | -34.79054 | 149.96368 | 15348 ft | 417 kts | 38° |
| 2026-04-21 04:57 | -34.76746 | 149.98495 | 15348 ft | 417 kts | 38° |
| 2026-04-21 04:57 | -34.74429 | 150.00630 | 15348 ft | 417 kts | 38° |
| 2026-04-21 04:57 | -34.72118 | 150.02757 | 15356 ft | 417 kts | 38° |
| 2026-04-21 04:58 | -34.69805 | 150.04885 | 15344 ft | 417 kts | 38° |
| 2026-04-21 04:58 | -34.67494 | 150.07010 | 15347 ft | 417 kts | 38° |
| 2026-04-21 04:58 | -34.65176 | 150.09139 | 15348 ft | 417 kts | 38° |
| 2026-04-21 04:58 | -34.62897 | 150.11230 | 15352 ft | 417 kts | 38° |
| 2026-04-21 04:59 | -34.60581 | 150.13352 | 15351 ft | 416 kts | 38° |
| 2026-04-21 04:59 | -34.58272 | 150.15469 | 15350 ft | 416 kts | 38° |
| 2026-04-21 04:59 | -34.55961 | 150.17585 | 15354 ft | 416 kts | 38° |
| 2026-04-21 04:59 | -34.53654 | 150.19697 | 15357 ft | 416 kts | 38° |
| 2026-04-21 05:00 | -34.51340 | 150.21813 | 15352 ft | 416 kts | 38° |
| 2026-04-21 05:00 | -34.49030 | 150.23926 | 15349 ft | 417 kts | 38° |
| 2026-04-21 05:00 | -34.44392 | 150.28162 | 15349 ft | 418 kts | 38° |
| 2026-04-21 05:01 | -34.42072 | 150.30279 | 15347 ft | 418 kts | 38° |
| 2026-04-21 05:01 | -34.39784 | 150.32367 | 15348 ft | 418 kts | 38° |
| 2026-04-21 05:01 | -34.37464 | 150.34481 | 15337 ft | 418 kts | 38° |
| 2026-04-21 05:01 | -34.35138 | 150.36599 | 15342 ft | 417 kts | 38° |
| 2026-04-21 05:02 | -34.32818 | 150.38710 | 15336 ft | 417 kts | 38° |
| 2026-04-21 05:02 | -34.30504 | 150.40813 | 14846 ft | 417 kts | 38° |
| 2026-04-21 05:02 | -34.28270 | 150.43014 | 14170 ft | 412 kts | 46° |
| 2026-04-21 05:02 | -34.26653 | 150.45798 | 13504 ft | 398 kts | 65° |
| 2026-04-21 05:03 | -34.25456 | 150.48774 | 12941 ft | 392 kts | 66° |
| 2026-04-21 05:03 | -34.24206 | 150.51690 | 12374 ft | 389 kts | 64° |
| 2026-04-21 05:03 | -34.22931 | 150.54555 | 11818 ft | 386 kts | 63° |
| 2026-04-21 05:03 | -34.21655 | 150.57395 | 11271 ft | 383 kts | 64° |
| 2026-04-21 05:04 | -34.20414 | 150.60152 | 10924 ft | 366 kts | 63° |
| 2026-04-21 05:04 | -34.19243 | 150.62745 | 10752 ft | 338 kts | 64° |
| 2026-04-21 05:04 | -34.18163 | 150.65142 | 10595 ft | 314 kts | 64° |
| 2026-04-21 05:04 | -34.17155 | 150.67378 | 10467 ft | 294 kts | 64° |
| 2026-04-21 05:05 | -34.16197 | 150.69510 | 10346 ft | 285 kts | 64° |
| 2026-04-21 05:05 | -34.15258 | 150.71579 | 10223 ft | 275 kts | 60° |
| 2026-04-21 05:05 | -34.14018 | 150.73278 | 10113 ft | 269 kts | 44° |
| 2026-04-21 05:05 | -34.12586 | 150.74749 | 10039 ft | 275 kts | 43° |
| 2026-04-21 05:06 | -34.11076 | 150.76294 | 9826 ft | 295 kts | 43° |
| 2026-04-21 05:06 | -34.09489 | 150.77920 | 9503 ft | 302 kts | 43° |
| 2026-04-21 05:06 | -34.07905 | 150.79541 | 9160 ft | 293 kts | 43° |
| 2026-04-21 05:06 | -34.06381 | 150.81097 | 8838 ft | 284 kts | 43° |
| 2026-04-21 05:07 | -34.04890 | 150.82605 | 8547 ft | 283 kts | 42° |
| 2026-04-21 05:07 | -34.03387 | 150.84124 | 8233 ft | 282 kts | 43° |
| 2026-04-21 05:07 | -34.01890 | 150.85638 | 7950 ft | 280 kts | 43° |
| 2026-04-21 05:07 | -34.00402 | 150.87150 | 7629 ft | 280 kts | 43° |
| 2026-04-21 05:08 | -33.98917 | 150.88658 | 7335 ft | 279 kts | 42° |
| 2026-04-21 05:08 | -33.97434 | 150.90166 | 7021 ft | 279 kts | 42° |
| 2026-04-21 05:08 | -33.95956 | 150.91668 | 6732 ft | 277 kts | 43° |
| 2026-04-21 05:08 | -33.94518 | 150.93121 | 6541 ft | 262 kts | 43° |
| 2026-04-21 05:09 | -33.93158 | 150.94488 | 6251 ft | 256 kts | 43° |
| 2026-04-21 05:09 | -33.91813 | 150.95834 | 5996 ft | 246 kts | 43° |
| 2026-04-21 05:09 | -33.90507 | 150.97131 | 6009 ft | 242 kts | 43° |
| 2026-04-21 05:09 | -33.89203 | 150.98427 | 5996 ft | 244 kts | 43° |
| 2026-04-21 05:10 | -33.87801 | 150.99554 | 5904 ft | 242 kts | 28° |
| 2026-04-21 05:10 | -33.86242 | 151.00331 | 5702 ft | 243 kts | 23° |
| 2026-04-21 05:10 | -33.84656 | 151.01057 | 5422 ft | 243 kts | 23° |
| 2026-04-21 05:10 | -33.83077 | 151.01774 | 5191 ft | 242 kts | 22° |
| 2026-04-21 05:11 | -33.81471 | 151.02329 | 4825 ft | 242 kts | 4° |
| 2026-04-21 05:11 | -33.79799 | 151.02184 | 4444 ft | 242 kts | 352° |
| 2026-04-21 05:11 | -33.78155 | 151.01933 | 4185 ft | 241 kts | 353° |
| 2026-04-21 05:11 | -33.76506 | 151.01693 | 4029 ft | 232 kts | 358° |
| 2026-04-21 05:12 | -33.74965 | 151.02042 | 3876 ft | 226 kts | 33° |
| 2026-04-21 05:12 | -33.73867 | 151.03304 | 3648 ft | 218 kts | 67° |
| 2026-04-21 05:12 | -33.73520 | 151.05003 | 3558 ft | 204 kts | 92° |
| 2026-04-21 05:12 | -33.73451 | 151.06686 | 3552 ft | 201 kts | 92° |
| 2026-04-21 05:13 | -33.73447 | 151.08349 | 3412 ft | 196 kts | 106° |
| 2026-04-21 05:13 | -33.74069 | 151.09710 | 3284 ft | 183 kts | 143° |
| 2026-04-21 05:13 | -33.75141 | 151.10510 | 3178 ft | 183 kts | 152° |
| 2026-04-21 05:13 | -33.76239 | 151.11243 | 3139 ft | 179 kts | 153° |
| 2026-04-21 05:14 | -33.77303 | 151.11961 | 3039 ft | 173 kts | 152° |
| 2026-04-21 05:14 | -33.78296 | 151.12638 | 2960 ft | 159 kts | 152° |
| 2026-04-21 05:14 | -33.79222 | 151.13268 | 2810 ft | 145 kts | 153° |
| 2026-04-21 05:14 | -33.80091 | 151.13738 | 2607 ft | 132 kts | 162° |
| 2026-04-21 05:15 | -33.81032 | 151.14080 | 2454 ft | 148 kts | 166° |
| 2026-04-21 05:15 | -33.82025 | 151.14371 | 2238 ft | 144 kts | 167° |
| 2026-04-21 05:15 | -33.82960 | 151.14622 | 2051 ft | 133 kts | 169° |
| 2026-04-21 05:15 | -33.83832 | 151.14846 | 1882 ft | 128 kts | 169° |
| 2026-04-21 05:16 | -33.84725 | 151.15076 | 1726 ft | 133 kts | 168° |
| 2026-04-21 05:16 | -33.85621 | 151.15305 | 1515 ft | 127 kts | 168° |
| 2026-04-21 05:16 | -33.86474 | 151.15522 | 1358 ft | 127 kts | 169° |
| 2026-04-21 05:16 | -33.87333 | 151.15742 | 1187 ft | 127 kts | 168° |
| 2026-04-21 05:17 | -33.88196 | 151.15966 | 996 ft | 127 kts | 168° |
| 2026-04-21 05:17 | -33.89066 | 151.16181 | 847 ft | 128 kts | 168° |
| 2026-04-21 05:17 | -33.89937 | 151.16389 | 677 ft | 132 kts | 169° |
| 2026-04-21 05:17 | -33.90836 | 151.16618 | 533 ft | 128 kts | 170° |
| 2026-04-21 05:18 | -33.91702 | 151.16838 | 324 ft | 130 kts | 169° |
| 2026-04-21 05:18 | -33.92594 | 151.17066 | 149 ft | 132 kts | 168° |
| 2026-04-21 05:18 | -33.93492 | 151.17303 | 24 ft | 128 kts | 168° |
| 2026-04-21 05:18 | -33.94202 | 151.17487 | 29 ft | 73 kts | 168° |
| 2026-04-21 05:19 | -33.94534 | 151.17572 | 29 ft | 46 kts | 168° |
| 2026-04-21 05:19 | -33.94715 | 151.17594 | 29 ft | 18 kts | 210° |
| 2026-04-21 05:19 | -33.94733 | 151.17462 | 30 ft | 18 kts | 300° |
| 2026-04-21 05:19 | -33.94626 | 151.17395 | 31 ft | 18 kts | 346° |
| 2026-04-21 05:20 | -33.94524 | 151.17368 | 31 ft | 14 kts | 348° |
| 2026-04-21 05:20 | -33.94449 | 151.17349 | 31 ft | 0 kts | 348° |
| 2026-04-21 05:20 | -33.94446 | 151.17348 | 31 ft | 1 kts | 347° |
| 2026-04-21 05:20 | -33.94439 | 151.17346 | 31 ft | 0 kts | 347° |
| 2026-04-21 05:21 | -33.94433 | 151.17345 | 31 ft | 1 kts | 347° |
| 2026-04-21 05:22 | -33.94417 | 151.17341 | 31 ft | 4 kts | 347° |
| 2026-04-21 05:22 | -33.94370 | 151.17328 | 31 ft | 7 kts | 347° |
| 2026-04-21 05:22 | -33.94357 | 151.17325 | 30 ft | 0 kts | 347° |
| 2026-04-21 05:22 | -33.94353 | 151.17324 | 30 ft | 3 kts | 347° |
| 2026-04-21 05:23 | -33.94336 | 151.17319 | 30 ft | 3 kts | 347° |
| 2026-04-21 05:23 | -33.94280 | 151.17305 | 28 ft | 15 kts | 348° |
| 2026-04-21 05:23 | -33.94157 | 151.17272 | 26 ft | 20 kts | 347° |
| 2026-04-21 05:23 | -33.94045 | 151.17243 | 29 ft | 14 kts | 347° |
| 2026-04-21 05:24 | -33.94018 | 151.17235 | 28 ft | 0 kts | 347° |
| 2026-04-21 05:24 | -33.93992 | 151.17236 | 27 ft | 7 kts | 15° |
| 2026-04-21 05:24 | -33.93976 | 151.17254 | 28 ft | 0 kts | 53° |
| 2026-04-21 05:27 | -33.93970 | 151.17264 | 27 ft | 7 kts | 56° |
| 2026-04-21 05:27 | -33.93935 | 151.17382 | 25 ft | 19 kts | 78° |
| 2026-04-21 05:27 | -33.93898 | 151.17544 | 27 ft | 23 kts | 74° |
| 2026-04-21 05:27 | -33.93862 | 151.17707 | 27 ft | 16 kts | 83° |
| 2026-04-21 05:28 | -33.93934 | 151.17787 | 27 ft | 16 kts | 165° |
| 2026-04-21 05:28 | -33.94056 | 151.17820 | 28 ft | 20 kts | 168° |
| 2026-04-21 05:28 | -33.94204 | 151.17858 | 29 ft | 22 kts | 168° |
| 2026-04-21 05:28 | -33.94271 | 151.17929 | 30 ft | 13 kts | 89° |
| 2026-04-21 05:29 | -33.94264 | 151.17981 | 30 ft | 5 kts | 88° |
| 2026-04-21 05:29 | -33.94291 | 151.18019 | 30 ft | 8 kts | 155° |
| 2026-04-21 05:29 | -33.94324 | 151.18030 | 30 ft | 5 kts | 166° |
| 2026-04-21 05:29 | -33.94339 | 151.18035 | 30 ft | 0 kts | 165° |